Terminal Aerodrome Forecast
Issued by NWS

Home | Current Version | Previous Version | Text Only | Print | Product List | Glossary On
Versions: 1 2 3 4 5 6 7 8 9 10 11 12 13 14 15
000
FTUS45 KRIW 041130
TAFCPR
TAF
KCPR 041130Z 0412/0512 28009KT P6SM FEW120 WS010/24035KT
     FM041400 22013G22KT P6SM FEW120
     FM050100 19012G18KT P6SM VCTS SCT100CB
     FM050600 22011KT P6SM FEW110=

USA.gov is the U.S. government's official web portal to all federal, state and local government web resources and services.